Riverlea, Ohio
Current Conditions -  °F | °C
As of 10:53 AM on Sunday 21 Dec 2014 (Local Time) from KOSU Reporting Station
Few Clouds Few Clouds  
Wind Chill: 28°   Ceiling: Unl
Heat Index: 33°   Visibility: 7mi
Dew Point: 21°   Wind: 6mph
Humidity: 61%   Direction: 120°ESE
Pressure: 30.31"   Gusts: NA
Location:  40.0994°N, 83.0166°W
Report Text: KOSU 211553Z 12005KT 7SM FEW025 01/M06 A3031 RMK AO2 SLP275 T00061061
Loading
Personal Weather Stations






























Interactive Weather Map New forecast layout! Learn more

10-Day Weather Forecast

Advertisements
Track Severe Weather on mobile